createdAt,value
2022-09-26T00:01:25.412Z,99904.00
2022-09-26T00:03:57.688Z,99905.69
2022-09-26T00:06:26.827Z,99898.53
2022-09-26T00:08:55.249Z,99898.75
2022-09-26T00:11:26.841Z,99899.44
2022-09-26T00:13:57.389Z,99902.03
2022-09-26T00:16:26.486Z,99892.84
2022-09-26T00:18:57.629Z,99895.63
2022-09-26T00:21:27.050Z,99893.88
2022-09-26T00:23:55.296Z,99893.25
2022-09-26T00:26:24.695Z,99898.97
2022-09-26T00:28:53.962Z,99900.22
2022-09-26T00:31:25.606Z,99903.53
2022-09-26T00:33:55.175Z,99908.28
2022-09-26T00:36:37.097Z,99911.56
2022-09-26T00:39:07.022Z,99909.00
2022-09-26T00:41:35.307Z,99908.91
2022-09-26T00:44:03.410Z,99905.13
2022-09-26T00:46:35.120Z,99905.28
2022-09-26T00:49:24.602Z,99897.38
2022-09-26T00:51:56.002Z,99894.94
2022-09-26T00:54:24.773Z,99882.03
2022-09-26T00:56:56.814Z,99877.66
2022-09-26T00:59:28.066Z,99874.75
2022-09-26T01:01:59.064Z,99868.38
2022-09-26T01:04:30.067Z,99865.50
2022-09-26T01:07:00.325Z,99867.19
2022-09-26T01:09:29.656Z,99870.06
2022-09-26T01:11:58.143Z,99867.59
2022-09-26T01:14:26.267Z,99860.75
2022-09-26T01:16:54.350Z,99866.25
2022-09-26T01:19:27.170Z,99859.44
2022-09-26T01:22:28.058Z,99861.59
2022-09-26T01:25:08.282Z,99852.16
2022-09-26T01:27:48.216Z,99846.81
2022-09-26T01:30:21.418Z,99845.97
2022-09-26T01:33:03.688Z,99842.19
2022-09-26T01:36:02.626Z,99846.28
2022-09-26T01:38:48.406Z,99841.72
2022-09-26T01:41:32.165Z,99840.78
2022-09-26T01:44:08.182Z,99834.56
2022-09-26T01:46:45.394Z,99845.22
2022-09-26T01:49:19.620Z,99826.06
2022-09-26T01:51:52.692Z,99822.56
2022-09-26T01:54:24.328Z,99819.81
2022-09-26T01:56:54.520Z,99820.03
2022-09-26T01:59:28.226Z,99823.97
2022-09-26T02:02:03.897Z,99820.66
2022-09-26T02:04:37.922Z,99814.63
2022-09-26T02:07:13.456Z,99811.84
2022-09-26T02:09:45.718Z,99808.34
2022-09-26T02:12:20.445Z,99804.84
2022-09-26T02:14:49.962Z,99799.91
2022-09-26T02:17:24.298Z,99795.72
2022-09-26T02:19:57.761Z,99797.53
2022-09-26T02:22:30.583Z,99799.56
2022-09-26T02:24:58.666Z,99800.75
2022-09-26T02:27:27.324Z,99802.72
2022-09-26T02:29:55.745Z,99800.66
2022-09-26T02:32:29.027Z,99799.19
2022-09-26T02:34:57.911Z,99786.34
2022-09-26T02:37:28.783Z,99777.47
2022-09-26T02:39:58.029Z,99773.56
2022-09-26T02:42:33.873Z,99764.84
2022-09-26T02:45:26.404Z,99760.69
2022-09-26T02:48:18.353Z,99750.47
2022-09-26T02:51:00.836Z,99753.38
2022-09-26T02:53:48.718Z,99754.78
2022-09-26T02:56:27.879Z,99750.13
2022-09-26T02:58:59.651Z,99755.72
2022-09-26T03:01:40.062Z,99752.16
2022-09-26T03:04:15.235Z,99751.31
2022-09-26T03:06:47.302Z,99751.25
2022-09-26T03:09:18.161Z,99744.22
2022-09-26T03:11:48.370Z,99750.31
2022-09-26T03:14:18.963Z,99737.44
2022-09-26T03:16:51.014Z,99736.75
2022-09-26T03:19:27.390Z,99731.41
2022-09-26T03:21:55.547Z,99730.34
2022-09-26T03:24:24.451Z,99735.59
2022-09-26T03:26:53.007Z,99727.81
2022-09-26T03:29:20.928Z,99729.88
2022-09-26T03:31:50.335Z,99729.78
2022-09-26T03:34:22.059Z,99716.00
2022-09-26T03:36:51.305Z,99735.41
2022-09-26T03:39:19.404Z,99730.44
2022-09-26T03:41:57.484Z,99714.44
2022-09-26T03:44:30.023Z,99712.34
2022-09-26T03:47:13.494Z,99711.69
2022-09-26T03:49:45.297Z,99704.31
2022-09-26T03:52:14.253Z,99710.91
2022-09-26T03:54:44.186Z,99712.66
2022-09-26T03:57:13.330Z,99704.75
2022-09-26T03:59:47.971Z,99691.50
2022-09-26T04:02:18.220Z,99695.50
2022-09-26T04:04:51.344Z,99686.56
2022-09-26T04:07:19.349Z,99689.16
2022-09-26T04:09:47.481Z,99687.16
2022-09-26T04:12:15.369Z,99681.16
2022-09-26T04:14:45.189Z,99673.94
2022-09-26T04:17:13.793Z,99675.88
2022-09-26T04:19:44.832Z,99667.00
2022-09-26T04:22:15.293Z,99669.78
2022-09-26T04:24:44.542Z,99659.47
2022-09-26T04:27:15.442Z,99648.50
2022-09-26T04:29:45.707Z,99641.22
2022-09-26T04:32:32.290Z,99633.81
2022-09-26T04:35:20.354Z,99630.53
2022-09-26T04:37:51.556Z,99626.03
2022-09-26T04:40:19.486Z,99628.63
2022-09-26T04:43:14.074Z,99634.88
2022-09-26T04:45:43.236Z,99619.09
2022-09-26T04:48:11.530Z,99629.69
2022-09-26T04:50:45.827Z,99623.06
2022-09-26T04:53:16.133Z,99618.69
2022-09-26T04:55:54.803Z,99621.00
2022-09-26T04:58:22.770Z,99612.38
2022-09-26T05:00:50.851Z,99617.03
2022-09-26T05:03:29.544Z,99620.53
2022-09-26T05:05:58.026Z,99620.47
2022-09-26T05:08:27.418Z,99616.41
2022-09-26T05:10:57.198Z,99608.19
2022-09-26T05:13:27.455Z,99609.03
2022-09-26T05:15:56.010Z,99609.50
2022-09-26T05:18:24.284Z,99597.34
2022-09-26T05:20:52.787Z,99587.91
2022-09-26T05:23:40.850Z,99585.16
2022-09-26T05:26:21.279Z,99591.41
2022-09-26T05:28:52.252Z,99591.94
2022-09-26T05:31:26.182Z,99589.13
2022-09-26T05:33:56.634Z,99582.81
2022-09-26T05:36:24.754Z,99586.09
2022-09-26T05:38:53.310Z,99591.06
2022-09-26T05:41:23.023Z,99583.28
2022-09-26T05:43:52.147Z,99585.94
2022-09-26T05:46:20.014Z,99581.38
2022-09-26T05:48:51.673Z,99569.84
2022-09-26T05:51:23.459Z,99574.81
2022-09-26T05:53:51.592Z,99578.19
2022-09-26T05:56:25.830Z,99573.66
2022-09-26T05:59:14.162Z,99573.91
2022-09-26T06:02:08.223Z,99567.41
2022-09-26T06:05:02.355Z,99575.78
2022-09-26T06:07:48.834Z,99569.44
2022-09-26T06:10:34.024Z,99558.41
2022-09-26T06:13:04.152Z,99553.53
2022-09-26T06:15:36.418Z,99557.75
2022-09-26T06:18:06.054Z,99548.50
2022-09-26T06:20:35.005Z,99553.00
2022-09-26T06:23:04.199Z,99559.22
2022-09-26T06:25:33.196Z,99560.28
2022-09-26T06:28:05.579Z,99561.97
2022-09-26T06:30:33.783Z,99565.78
2022-09-26T06:33:13.033Z,99569.53
2022-09-26T06:36:01.388Z,99560.91
2022-09-26T06:38:34.892Z,99551.66
2022-09-26T06:41:04.121Z,99541.38
2022-09-26T06:43:33.913Z,99532.06
2022-09-26T06:46:10.487Z,99528.31
2022-09-26T06:48:49.766Z,99531.34
2022-09-26T06:51:22.856Z,99526.69
2022-09-26T06:53:50.648Z,99529.13
2022-09-26T06:56:22.050Z,99530.81
2022-09-26T06:58:51.404Z,99531.31
2022-09-26T07:01:23.710Z,99523.88
2022-09-26T07:04:02.602Z,99525.50
2022-09-26T07:06:39.434Z,99514.03
2022-09-26T07:09:12.245Z,99517.78
2022-09-26T07:12:14.798Z,99508.66
2022-09-26T07:14:47.934Z,99507.50
2022-09-26T07:17:30.285Z,99506.03
2022-09-26T07:20:26.975Z,99517.16
2022-09-26T07:23:22.689Z,99514.06
2022-09-26T07:25:51.958Z,99524.56
2022-09-26T07:28:19.919Z,99512.78
2022-09-26T07:30:51.415Z,99515.66
2022-09-26T07:33:48.510Z,99516.91
2022-09-26T07:36:18.398Z,99517.31
2022-09-26T07:38:48.460Z,99519.03
2022-09-26T07:41:17.986Z,99513.00
2022-09-26T07:44:46.000Z,99506.44
2022-09-26T07:46:54.271Z,99512.13
2022-09-26T07:49:40.517Z,99510.38
2022-09-26T07:52:12.288Z,99510.09
2022-09-26T07:54:52.041Z,99509.97
2022-09-26T07:57:41.667Z,99517.31
2022-09-26T08:00:40.236Z,99512.63
2022-09-26T08:03:35.678Z,99515.06
2022-09-26T08:06:12.304Z,99511.94
2022-09-26T08:08:41.331Z,99522.94
2022-09-26T08:11:28.292Z,99513.84
2022-09-26T08:14:09.951Z,99512.66
2022-09-26T08:16:48.009Z,99519.19
2022-09-26T08:19:17.740Z,99511.75
2022-09-26T08:21:46.517Z,99514.03
2022-09-26T08:24:14.691Z,99506.19
2022-09-26T08:27:07.660Z,99505.16
2022-09-26T08:29:39.236Z,99510.56
2022-09-26T08:32:07.202Z,99502.19
2022-09-26T08:34:38.963Z,99509.81
2022-09-26T08:37:38.214Z,99503.50
2022-09-26T08:40:33.674Z,99493.56
2022-09-26T08:43:43.995Z,99494.91
2022-09-26T08:46:46.139Z,99491.00
2022-09-26T08:49:44.229Z,99489.00
2022-09-26T08:52:31.361Z,99496.09
2022-09-26T08:55:03.062Z,99483.97
2022-09-26T08:57:37.612Z,99485.75
2022-09-26T09:00:19.096Z,99487.81
2022-09-26T09:03:05.503Z,99482.66
2022-09-26T09:05:40.965Z,99477.78
2022-09-26T09:08:14.663Z,99481.03
2022-09-26T09:11:04.284Z,99469.34
2022-09-26T09:13:45.606Z,99471.66
2022-09-26T09:16:56.420Z,99478.53
2022-09-26T09:19:46.808Z,99481.59
2022-09-26T09:23:01.765Z,99472.22
2022-09-26T09:25:42.935Z,99473.63
2022-09-26T09:28:24.694Z,99471.47
2022-09-26T09:30:57.659Z,99472.22
2022-09-26T09:33:32.911Z,99474.84
2022-09-26T09:36:25.895Z,99471.28
2022-09-26T09:39:20.825Z,99471.09
2022-09-26T09:41:59.167Z,99462.38
2022-09-26T09:44:36.900Z,99469.16
2022-09-26T09:47:12.613Z,99464.69
2022-09-26T09:49:41.022Z,99463.63
2022-09-26T09:52:21.404Z,99468.63
2022-09-26T09:55:06.963Z,99460.97
2022-09-26T09:57:58.068Z,99445.66
2022-09-26T10:00:27.652Z,99451.47
2022-09-26T10:03:17.877Z,99443.94
2022-09-26T10:05:48.098Z,99441.34
2022-09-26T10:08:31.296Z,99422.28
2022-09-26T10:11:28.500Z,99416.66
2022-09-26T10:14:28.634Z,99415.72
2022-09-26T10:17:20.239Z,99424.19
2022-09-26T10:20:10.183Z,99415.13
2022-09-26T10:22:45.398Z,99412.31
2022-09-26T10:25:26.626Z,99410.25
2022-09-26T10:27:59.176Z,99405.56
2022-09-26T10:30:33.150Z,99402.16
2022-09-26T10:33:06.095Z,99393.81
2022-09-26T10:35:49.008Z,99390.03
2022-09-26T10:38:23.869Z,99385.25
2022-09-26T10:40:59.720Z,99386.94
2022-09-26T10:43:33.896Z,99386.22
2022-09-26T10:46:33.353Z,99385.72
2022-09-26T10:49:25.107Z,99396.34
2022-09-26T10:52:28.920Z,99383.34
2022-09-26T10:55:03.793Z,99384.22
2022-09-26T10:57:37.466Z,99376.22
2022-09-26T11:00:09.076Z,99381.03
2022-09-26T11:02:37.651Z,99381.03
2022-09-26T11:05:24.667Z,99376.75
2022-09-26T11:08:10.122Z,99381.84
2022-09-26T11:10:55.674Z,99379.81
2022-09-26T11:13:47.864Z,99375.66
2022-09-26T11:16:20.169Z,99372.34
2022-09-26T11:19:02.444Z,99370.53
2022-09-26T11:21:41.217Z,99363.44
2022-09-26T11:24:16.815Z,99369.03
2022-09-26T11:26:53.431Z,99361.03
2022-09-26T11:29:33.293Z,99351.16
2022-09-26T11:32:10.408Z,99349.94
2022-09-26T11:35:02.139Z,99333.50
2022-09-26T11:38:00.023Z,99314.25
2022-09-26T11:40:48.644Z,99319.03
2022-09-26T11:43:35.169Z,99315.69
2022-09-26T11:46:33.060Z,99313.31
2022-09-26T11:49:39.098Z,99297.69
2022-09-26T11:52:53.576Z,99303.81
2022-09-26T11:55:31.004Z,99294.84
2022-09-26T11:58:11.614Z,99289.19
2022-09-26T12:00:49.843Z,99281.53
2022-09-26T12:03:39.971Z,99279.53
2022-09-26T12:06:21.327Z,99281.09
2022-09-26T12:09:10.642Z,99279.81
2022-09-26T12:11:49.724Z,99274.03
2022-09-26T12:14:35.298Z,99263.03
2022-09-26T12:17:12.799Z,99261.53
2022-09-26T12:19:46.898Z,99252.78
2022-09-26T12:22:31.156Z,99244.22
2022-09-26T12:25:20.318Z,99241.88
2022-09-26T12:27:59.096Z,99230.81
2022-09-26T12:30:33.402Z,99221.28
2022-09-26T12:33:27.673Z,99221.69
2022-09-26T12:36:06.624Z,99214.94
2022-09-26T12:39:00.613Z,99215.56
2022-09-26T12:41:45.740Z,99203.06
2022-09-26T12:44:37.068Z,99214.88
2022-09-26T12:47:40.372Z,99201.41
2022-09-26T12:50:18.118Z,99198.97
2022-09-26T12:53:17.267Z,99199.09
2022-09-26T12:55:53.635Z,99200.16
2022-09-26T12:58:34.543Z,99192.81
2022-09-26T13:01:11.967Z,99194.47
2022-09-26T13:04:02.593Z,99197.09
2022-09-26T13:07:17.207Z,99198.53
2022-09-26T13:10:03.959Z,99188.06
2022-09-26T13:12:51.154Z,99189.72
2022-09-26T13:15:26.177Z,99180.91
2022-09-26T13:17:59.348Z,99175.81
2022-09-26T13:20:32.599Z,99168.78
2022-09-26T13:23:07.811Z,99162.34
2022-09-26T13:25:49.334Z,99155.09
2022-09-26T13:28:24.203Z,99152.13
2022-09-26T13:30:57.958Z,99152.84
2022-09-26T13:33:32.382Z,99157.00
2022-09-26T13:36:03.462Z,99154.38
2022-09-26T13:38:51.548Z,99151.66
2022-09-26T13:41:33.878Z,99133.56
2022-09-26T13:44:13.107Z,99131.06
2022-09-26T13:46:52.264Z,99135.28
2022-09-26T13:49:33.804Z,99128.06
2022-09-26T13:52:20.128Z,99125.03
2022-09-26T13:54:58.982Z,99137.22
2022-09-26T13:57:46.486Z,99129.63
2022-09-26T14:00:49.128Z,99124.63
2022-09-26T14:03:39.133Z,99124.19
2022-09-26T14:06:34.158Z,99108.31
2022-09-26T14:09:27.043Z,99109.28
2022-09-26T14:12:22.364Z,99104.19
2022-09-26T14:15:15.382Z,99103.81
2022-09-26T14:18:12.473Z,99094.53
2022-09-26T14:20:57.459Z,99096.56
2022-09-26T14:23:37.577Z,99085.41
2022-09-26T14:26:07.582Z,99076.75
2022-09-26T14:28:37.110Z,99077.31
2022-09-26T14:31:44.048Z,99070.50
2022-09-26T14:34:21.067Z,99067.06
2022-09-26T14:36:51.753Z,99067.06
2022-09-26T14:39:35.469Z,99053.66
2022-09-26T14:42:20.207Z,99047.72
2022-09-26T14:44:58.932Z,99039.72
2022-09-26T14:47:29.542Z,99030.94
2022-09-26T14:50:03.152Z,99029.88
2022-09-26T14:52:33.893Z,99028.09
2022-09-26T14:55:06.155Z,99017.16
2022-09-26T14:57:35.886Z,99015.50
2022-09-26T15:00:05.128Z,99007.41
2022-09-26T15:02:43.744Z,99012.53
2022-09-26T15:05:23.369Z,99011.44
2022-09-26T15:07:53.921Z,99007.41
2022-09-26T15:10:26.142Z,99019.41
2022-09-26T15:13:10.775Z,99014.16
2022-09-26T15:15:51.672Z,99007.66
2022-09-26T15:18:31.308Z,99005.88
2022-09-26T15:21:05.102Z,99007.66
2022-09-26T15:23:45.352Z,98998.03
2022-09-26T15:26:15.746Z,98988.53
2022-09-26T15:28:44.192Z,98993.25
2022-09-26T15:31:26.868Z,98988.88
2022-09-26T15:34:02.519Z,98988.38
2022-09-26T15:36:33.235Z,98987.19
2022-09-26T15:39:08.261Z,98979.94
2022-09-26T15:42:03.023Z,98978.06
2022-09-26T15:44:35.486Z,98973.53
2022-09-26T15:47:27.278Z,98975.31
2022-09-26T15:50:04.925Z,98972.34
2022-09-26T15:52:35.291Z,98977.47
2022-09-26T15:55:33.623Z,98968.56
2022-09-26T15:58:06.671Z,98968.22
2022-09-26T16:00:38.180Z,98975.31
2022-09-26T16:03:34.414Z,98967.72
2022-09-26T16:06:02.882Z,98961.31
2022-09-26T16:08:39.008Z,98964.38
2022-09-26T16:11:08.865Z,98956.44
2022-09-26T16:13:41.619Z,98957.38
2022-09-26T16:16:19.120Z,98957.50
2022-09-26T16:18:53.152Z,98958.22
2022-09-26T16:21:22.518Z,98951.69
2022-09-26T16:23:53.267Z,98951.09
2022-09-26T16:26:43.047Z,98938.50
2022-09-26T16:29:11.143Z,98934.34
2022-09-26T16:31:46.969Z,98930.56
2022-09-26T16:34:21.896Z,98926.63
2022-09-26T16:36:50.730Z,98924.97
2022-09-26T16:39:22.511Z,98931.38
2022-09-26T16:42:02.449Z,98927.81
2022-09-26T16:44:36.003Z,98916.16
2022-09-26T16:47:07.435Z,98905.97
2022-09-26T16:49:45.565Z,98908.00
2022-09-26T16:52:31.267Z,98900.50
2022-09-26T16:55:00.638Z,98901.69
2022-09-26T16:57:32.030Z,98893.75
2022-09-26T17:00:24.999Z,98892.31
2022-09-26T17:02:52.934Z,98888.53
2022-09-26T17:05:45.210Z,98882.47
2022-09-26T17:08:13.110Z,98881.63
2022-09-26T17:10:43.360Z,98879.13
2022-09-26T17:13:16.951Z,98873.19
2022-09-26T17:15:48.509Z,98869.63
2022-09-26T17:18:21.084Z,98875.56
2022-09-26T17:20:49.982Z,98864.41
2022-09-26T17:23:38.616Z,98864.19
2022-09-26T17:26:13.151Z,98857.88
2022-09-26T17:28:43.511Z,98857.53
2022-09-26T17:31:19.443Z,98862.63
2022-09-26T17:33:49.837Z,98848.72
2022-09-26T17:36:23.668Z,98849.22
2022-09-26T17:38:51.886Z,98841.28
2022-09-26T17:41:19.888Z,98842.66
2022-09-26T17:43:50.055Z,98842.81
2022-09-26T17:46:17.990Z,98837.59
2022-09-26T17:48:46.209Z,98823.88
2022-09-26T17:51:15.075Z,98823.53
2022-09-26T17:53:50.509Z,98822.78
2022-09-26T17:56:20.200Z,98798.44
2022-09-26T17:58:51.753Z,98820.16
2022-09-26T18:01:23.947Z,98825.94
2022-09-26T18:03:55.507Z,98824.00
2022-09-26T18:06:25.842Z,98818.06
2022-09-26T18:08:54.960Z,98812.97
2022-09-26T18:11:22.903Z,98809.19
2022-09-26T18:13:54.597Z,98810.88
2022-09-26T18:16:23.347Z,98814.19
2022-09-26T18:18:51.735Z,98805.19
2022-09-26T18:21:20.316Z,98803.63
2022-09-26T18:23:52.631Z,98791.56
2022-09-26T18:26:29.092Z,98793.69
2022-09-26T18:29:00.262Z,98796.00
2022-09-26T18:31:31.860Z,98799.00
2022-09-26T18:34:03.037Z,98795.69
2022-09-26T18:36:33.180Z,98822.03
2022-09-26T18:39:01.498Z,98819.63
2022-09-26T18:41:29.596Z,98824.63
2022-09-26T18:44:02.771Z,98819.72
2022-09-26T18:46:31.458Z,98821.09
2022-09-26T18:49:06.203Z,98822.34
2022-09-26T18:51:35.064Z,98819.41
2022-09-26T18:54:10.751Z,98820.56
2022-09-26T18:56:56.885Z,98823.41
2022-09-26T18:59:29.007Z,98820.06
2022-09-26T19:01:59.458Z,98814.25
2022-09-26T19:04:30.323Z,98811.53
2022-09-26T19:07:01.893Z,98804.38
2022-09-26T19:09:33.946Z,98810.28
2022-09-26T19:12:03.175Z,98809.81
2022-09-26T19:14:33.149Z,98812.19
2022-09-26T19:17:01.377Z,98808.75
2022-09-26T19:19:32.485Z,98806.38
2022-09-26T19:22:07.981Z,98808.00
2022-09-26T19:24:39.625Z,98798.44
2022-09-26T19:27:10.479Z,98809.97
2022-09-26T19:29:43.556Z,98809.66
2022-09-26T19:32:18.227Z,98805.28
2022-09-26T19:34:50.999Z,98812.25
2022-09-26T19:37:20.251Z,98808.81
2022-09-26T19:39:48.218Z,98817.00
2022-09-26T19:42:16.313Z,98803.53
2022-09-26T19:44:46.023Z,98815.56
2022-09-26T19:47:20.029Z,98805.13
2022-09-26T19:49:49.334Z,98794.63
2022-09-26T19:52:19.683Z,98795.22
2022-09-26T19:54:50.438Z,98788.94
2022-09-26T19:57:19.964Z,98775.72
2022-09-26T19:59:50.134Z,98778.03
2022-09-26T20:02:20.601Z,98778.94
2022-09-26T20:04:49.856Z,98773.13
2022-09-26T20:07:21.003Z,98781.06
2022-09-26T20:09:49.110Z,98785.31
2022-09-26T20:12:17.266Z,98773.72
2022-09-26T20:14:47.867Z,98769.22
2022-09-26T20:17:24.324Z,98768.34
2022-09-26T20:19:58.640Z,98774.16
2022-09-26T20:22:27.397Z,98758.16
2022-09-26T20:24:56.168Z,98756.47
2022-09-26T20:27:28.114Z,98752.44
2022-09-26T20:30:14.302Z,98746.06
2022-09-26T20:32:43.934Z,98740.34
2022-09-26T20:35:15.633Z,98736.25
2022-09-26T20:37:45.514Z,98731.75
2022-09-26T20:40:18.607Z,98727.94
2022-09-26T20:42:56.045Z,98723.03
2022-09-26T20:45:29.611Z,98728.34
2022-09-26T20:47:59.640Z,98722.94
2022-09-26T20:50:34.228Z,98714.81
2022-09-26T20:53:02.720Z,98702.31
2022-09-26T20:55:32.479Z,98702.63
2022-09-26T20:58:03.774Z,98698.41
2022-09-26T21:00:32.464Z,98693.78
2022-09-26T21:03:02.052Z,98682.31
2022-09-26T21:05:30.237Z,98698.16
2022-09-26T21:08:00.137Z,98693.56
2022-09-26T21:10:30.224Z,98690.84
2022-09-26T21:12:58.956Z,98677.81
2022-09-26T21:15:29.050Z,98679.78
2022-09-26T21:17:57.471Z,98678.25
2022-09-26T21:20:29.309Z,98666.91
2022-09-26T21:23:10.484Z,98676.06
2022-09-26T21:25:41.086Z,98667.75
2022-09-26T21:28:22.868Z,98666.91
2022-09-26T21:30:52.121Z,98665.84
2022-09-26T21:33:21.871Z,98663.03
2022-09-26T21:35:51.627Z,98657.31
2022-09-26T21:38:21.528Z,98659.19
2022-09-26T21:40:55.117Z,98660.97
2022-09-26T21:43:26.825Z,98653.06
2022-09-26T21:45:54.736Z,98650.53
2022-09-26T21:48:23.339Z,98656.94
2022-09-26T21:50:58.086Z,98654.44
2022-09-26T21:53:32.072Z,98645.19
2022-09-26T21:56:07.377Z,98638.06
2022-09-26T21:58:39.219Z,98638.13
2022-09-26T22:01:07.254Z,98625.06
2022-09-26T22:03:35.756Z,98615.91
2022-09-26T22:06:07.505Z,98610.91
2022-09-26T22:08:35.669Z,98611.00
2022-09-26T22:11:04.066Z,98605.41
2022-09-26T22:13:33.082Z,98595.56
2022-09-26T22:16:06.051Z,98581.13
2022-09-26T22:18:34.830Z,98570.59
2022-09-26T22:21:04.747Z,98560.63
2022-09-26T22:23:34.200Z,98559.06
2022-09-26T22:26:02.833Z,98552.56
2022-09-26T22:28:30.940Z,98538.63
2022-09-26T22:31:02.404Z,98530.09
2022-09-26T22:33:30.590Z,98519.69
2022-09-26T22:35:58.763Z,98526.66
2022-09-26T22:38:26.805Z,98518.63
2022-09-26T22:41:00.126Z,98520.94
2022-09-26T22:43:28.470Z,98518.34
2022-09-26T22:46:02.036Z,98507.13
2022-09-26T22:48:32.170Z,98504.53
2022-09-26T22:51:00.355Z,98498.28
2022-09-26T22:53:28.611Z,98491.41
2022-09-26T22:55:58.173Z,98495.91
2022-09-26T22:58:27.543Z,98492.34
2022-09-26T23:00:55.698Z,98488.81
2022-09-26T23:03:23.873Z,98487.13
2022-09-26T23:05:51.804Z,98474.97
2022-09-26T23:08:19.767Z,98479.34
2022-09-26T23:10:50.720Z,98467.91
2022-09-26T23:13:19.096Z,98474.88
2022-09-26T23:15:48.751Z,98475.72
2022-09-26T23:18:16.743Z,98464.69
2022-09-26T23:20:45.285Z,98461.28
2022-09-26T23:23:14.763Z,98456.66
2022-09-26T23:25:47.182Z,98456.66
2022-09-26T23:28:15.446Z,98444.75
2022-09-26T23:30:44.151Z,98450.41
2022-09-26T23:33:14.230Z,98443.56
2022-09-26T23:35:42.109Z,98446.97
2022-09-26T23:38:10.089Z,98442.94
2022-09-26T23:40:38.926Z,98432.66
2022-09-26T23:43:06.829Z,98432.53
2022-09-26T23:45:36.670Z,98425.69
2022-09-26T23:48:04.754Z,98427.25
2022-09-26T23:50:34.781Z,98426.16
2022-09-26T23:53:06.444Z,98419.19
2022-09-26T23:55:35.553Z,98420.03
2022-09-26T23:58:03.689Z,98413.31
